createdAt,value
2019-04-01T00:01:56.874Z,100942.39
2019-04-01T00:04:25.293Z,100940.66
2019-04-01T00:06:53.717Z,100946.81
2019-04-01T00:09:22.151Z,100943.55
2019-04-01T00:11:50.570Z,100951.90
2019-04-01T00:14:19.006Z,100945.07
2019-04-01T00:16:47.410Z,100951.56
2019-04-01T00:19:15.844Z,100955.16
2019-04-01T00:22:28.471Z,100957.36
2019-04-01T00:24:14.520Z,100957.73
2019-04-01T00:26:42.937Z,100957.89
2019-04-01T00:29:11.388Z,100955.16
2019-04-01T00:31:39.817Z,100956.69
2019-04-01T00:34:08.242Z,100955.48
2019-04-01T00:36:36.685Z,100955.48
2019-04-01T00:39:06.382Z,100961.09
2019-04-01T00:41:36.434Z,100958.36
2019-04-01T00:44:12.642Z,100965.19
2019-04-01T00:46:41.483Z,100966.19
2019-04-01T00:49:09.924Z,100964.82
2019-04-01T00:51:38.351Z,100966.34
2019-04-01T00:54:06.773Z,100960.16
2019-04-01T00:56:35.205Z,100959.67
2019-04-01T00:59:03.611Z,100960.69
2019-04-01T01:01:32.038Z,100959.67
2019-04-01T01:04:00.494Z,100954.70
2019-04-01T01:06:28.876Z,100955.57
2019-04-01T01:08:57.307Z,100947.03
2019-04-01T01:11:25.777Z,100939.83
2019-04-01T01:13:54.224Z,100925.68
2019-04-01T01:16:22.693Z,100928.41
2019-04-01T01:18:51.118Z,100934.38
2019-04-01T01:21:19.628Z,100943.09
2019-04-01T01:23:48.056Z,100940.70
2019-04-01T01:26:16.496Z,100945.45
2019-04-01T01:28:44.976Z,100943.41
2019-04-01T01:31:13.382Z,100942.20
2019-04-01T01:33:41.823Z,100945.27
2019-04-01T01:36:10.233Z,100942.20
2019-04-01T01:38:38.671Z,100939.80
2019-04-01T01:41:07.087Z,100931.61
2019-04-01T01:43:35.522Z,100932.11
2019-04-01T01:46:03.939Z,100938.78
2019-04-01T01:48:32.382Z,100942.04
2019-04-01T01:51:00.819Z,100932.98
2019-04-01T01:53:29.230Z,100931.27
2019-04-01T01:55:57.655Z,100935.37
2019-04-01T01:58:26.087Z,100927.67
2019-04-01T02:00:56.123Z,100931.61
2019-04-01T02:03:24.569Z,100929.53
2019-04-01T02:05:52.999Z,100929.19
2019-04-01T02:08:21.416Z,100932.27
2019-04-01T02:10:49.995Z,100926.62
2019-04-01T02:13:20.165Z,100925.75
2019-04-01T02:15:48.739Z,100918.58
2019-04-01T02:18:17.151Z,100925.41
2019-04-01T02:20:45.570Z,100929.50
2019-04-01T02:23:13.995Z,100919.23
2019-04-01T02:25:42.410Z,100921.80
2019-04-01T02:28:10.838Z,100918.73
2019-04-01T02:30:39.268Z,100910.70
2019-04-01T02:33:07.699Z,100911.57
2019-04-01T02:35:36.111Z,100912.06
2019-04-01T02:38:04.537Z,100906.60
2019-04-01T02:40:33.520Z,100916.16
2019-04-01T02:43:01.943Z,100910.36
2019-04-01T02:45:30.368Z,100912.72
2019-04-01T02:47:58.810Z,100914.45
2019-04-01T02:50:27.288Z,100918.02
2019-04-01T02:52:55.705Z,100913.43
2019-04-01T02:55:24.163Z,100915.83
2019-04-01T02:57:52.585Z,100918.55
2019-04-01T03:00:21.079Z,100912.22
2019-04-01T03:02:49.491Z,100914.95
2019-04-01T03:05:17.910Z,100914.95
2019-04-01T03:07:46.327Z,100915.45
2019-04-01T03:10:14.850Z,100912.38
2019-04-01T03:12:43.253Z,100913.37
2019-04-01T03:15:11.807Z,100920.20
2019-04-01T03:17:40.237Z,100918.83
2019-04-01T03:20:09.050Z,100919.86
2019-04-01T03:22:37.526Z,100920.20
2019-04-01T03:25:07.041Z,100917.47
2019-04-01T03:27:35.449Z,100921.72
2019-04-01T03:30:04.353Z,100926.69
2019-04-01T03:32:32.759Z,100918.64
2019-04-01T03:35:01.818Z,100923.23
2019-04-01T03:37:30.692Z,100923.23
2019-04-01T03:39:59.133Z,100926.99
2019-04-01T03:42:27.540Z,100930.06
2019-04-01T03:44:56.059Z,100922.56
2019-04-01T03:47:24.487Z,100926.13
2019-04-01T03:49:52.886Z,100929.72
2019-04-01T03:52:21.322Z,100930.34
2019-04-01T03:54:49.735Z,100928.02
2019-04-01T03:57:18.166Z,100925.75
2019-04-01T03:59:46.582Z,100923.52
2019-04-01T04:02:15.007Z,100924.54
2019-04-01T04:04:43.462Z,100928.98
2019-04-01T04:07:11.870Z,100928.98
2019-04-01T04:09:40.290Z,100928.14
2019-04-01T04:12:11.061Z,100929.66
2019-04-01T04:14:39.484Z,100935.13
2019-04-01T04:17:07.935Z,100933.91
2019-04-01T04:19:36.361Z,100934.75
2019-04-01T04:22:04.795Z,100935.77
2019-04-01T04:24:33.254Z,100933.53
2019-04-01T04:27:01.699Z,100936.80
2019-04-01T04:29:30.109Z,100933.70
2019-04-01T04:31:58.546Z,100939.53
2019-04-01T04:34:27.001Z,100942.41
2019-04-01T04:36:55.412Z,100941.55
2019-04-01T04:39:23.853Z,100943.94
2019-04-01T04:41:52.275Z,100941.70
2019-04-01T04:44:20.709Z,100949.39
2019-04-01T04:46:49.131Z,100938.25
2019-04-01T04:49:17.558Z,100939.95
2019-04-01T04:51:46.142Z,100941.85
2019-04-01T04:54:14.654Z,100942.84
2019-04-01T04:56:43.058Z,100942.01
2019-04-01T04:59:11.462Z,100945.23
2019-04-01T05:01:39.906Z,100945.39
2019-04-01T05:04:08.316Z,100944.17
2019-04-01T05:06:36.735Z,100951.87
2019-04-01T05:09:08.072Z,100944.33
2019-04-01T05:11:36.522Z,100946.19
2019-04-01T05:14:05.022Z,100950.28
2019-04-01T05:16:33.426Z,100950.28
2019-04-01T05:19:01.864Z,100952.86
2019-04-01T05:21:32.363Z,100955.25
2019-04-01T05:24:01.586Z,100951.49
2019-04-01T05:26:31.562Z,100947.78
2019-04-01T05:29:02.407Z,100951.34
2019-04-01T05:31:33.500Z,100959.03
2019-04-01T05:34:02.268Z,100954.07
2019-04-01T05:36:31.584Z,100955.97
2019-04-01T05:39:00.295Z,100960.55
2019-04-01T05:41:28.714Z,100962.27
2019-04-01T05:43:57.252Z,100965.36
2019-04-01T05:46:25.944Z,100964.00
2019-04-01T05:48:54.357Z,100971.51
2019-04-01T05:51:22.798Z,100973.25
2019-04-01T05:53:51.306Z,100970.52
2019-04-01T05:56:19.720Z,100972.60
2019-04-01T05:58:48.306Z,100974.65
2019-04-01T06:01:18.527Z,100966.83
2019-04-01T06:03:47.121Z,100968.87
2019-04-01T06:06:15.545Z,100969.25
2019-04-01T06:08:43.989Z,100971.71
2019-04-01T06:11:12.586Z,100969.17
2019-04-01T06:13:41.090Z,100972.09
2019-04-01T06:16:09.498Z,100971.93
2019-04-01T06:18:37.990Z,100969.76
2019-04-01T06:21:06.859Z,100971.19
2019-04-01T06:23:35.729Z,100979.91
2019-04-01T06:26:04.514Z,100978.08
2019-04-01T06:28:32.907Z,100979.84
2019-04-01T06:31:01.493Z,100980.41
2019-04-01T06:33:30.275Z,100982.67
2019-04-01T06:35:58.711Z,100984.44
2019-04-01T06:38:27.461Z,100983.96
2019-04-01T06:40:56.327Z,100983.67
2019-04-01T06:43:24.956Z,100987.67
2019-04-01T06:45:53.441Z,100976.11
2019-04-01T06:48:22.043Z,100977.88
2019-04-01T06:53:17.839Z,100974.55
2019-04-01T06:55:46.346Z,100972.21
2019-04-01T06:58:14.845Z,100972.44
2019-04-01T07:00:43.509Z,100964.09
2019-04-01T07:03:12.504Z,100975.27
2019-04-01T07:05:40.919Z,100974.12
2019-04-01T07:08:09.347Z,100964.73
2019-04-01T07:10:37.955Z,100956.75
2019-04-01T07:13:06.418Z,100960.20
2019-04-01T07:15:34.849Z,100962.66
2019-04-01T07:18:03.388Z,100964.08
2019-04-01T07:20:32.309Z,100960.55
2019-04-01T07:23:00.713Z,100963.50
2019-04-01T07:25:29.225Z,100963.67
2019-04-01T07:27:57.720Z,100964.91
2019-04-01T07:30:26.196Z,100965.45
2019-04-01T07:32:54.708Z,100961.02
2019-04-01T07:35:23.171Z,100961.39
2019-04-01T07:37:51.928Z,100967.56
2019-04-01T07:40:20.365Z,100962.95
2019-04-01T07:42:48.945Z,100960.92
2019-04-01T07:45:17.532Z,100964.39
2019-04-01T07:47:46.087Z,100966.09
2019-04-01T07:50:15.627Z,100964.61
2019-04-01T07:52:44.221Z,100961.20
2019-04-01T07:55:12.821Z,100969.08
2019-04-01T07:57:41.253Z,100966.16
2019-04-01T08:00:10.212Z,100968.22
2019-04-01T08:02:38.664Z,100969.78
2019-04-01T08:05:07.524Z,100967.89
2019-04-01T08:07:35.967Z,100958.32
2019-04-01T08:10:06.753Z,100960.02
2019-04-01T08:12:35.267Z,100953.18
2019-04-01T08:15:06.041Z,100959.02
2019-04-01T08:17:34.661Z,100954.55
2019-04-01T08:20:03.150Z,100950.59
2019-04-01T08:22:31.643Z,100954.72
2019-04-01T08:25:00.050Z,100950.77
2019-04-01T08:27:28.563Z,100946.70
2019-04-01T08:29:57.126Z,100949.25
2019-04-01T08:32:25.561Z,100952.16
2019-04-01T08:34:53.993Z,100946.83
2019-04-01T08:37:22.494Z,100954.53
2019-04-01T08:39:50.913Z,100948.55
2019-04-01T08:42:19.830Z,100949.39
2019-04-01T08:44:48.321Z,100950.59
2019-04-01T08:47:17.227Z,100952.13
2019-04-01T08:49:45.633Z,100955.21
2019-04-01T08:52:14.141Z,100953.97
2019-04-01T08:54:42.645Z,100946.61
2019-04-01T08:57:11.133Z,100944.52
2019-04-01T08:59:39.557Z,100947.24
2019-04-01T09:02:17.711Z,100945.16
2019-04-01T09:04:38.689Z,100938.33
2019-04-01T09:07:07.173Z,100941.05
2019-04-01T09:09:37.147Z,100942.72
2019-04-01T09:12:05.629Z,100935.85
2019-04-01T09:14:34.811Z,100941.34
2019-04-01T09:17:03.567Z,100935.31
2019-04-01T09:19:32.010Z,100930.66
2019-04-01T09:22:00.421Z,100940.59
2019-04-01T09:24:28.868Z,100928.56
2019-04-01T09:26:57.277Z,100933.84
2019-04-01T09:29:25.717Z,100931.45
2019-04-01T09:31:54.145Z,100928.48
2019-04-01T09:34:22.573Z,100927.94
2019-04-01T09:36:51.015Z,100927.06
2019-04-01T09:39:19.436Z,100926.19
2019-04-01T09:41:47.884Z,100921.84
2019-04-01T09:44:16.309Z,100920.46
2019-04-01T09:46:44.733Z,100914.22
2019-04-01T09:49:13.165Z,100911.24
2019-04-01T09:51:48.489Z,100906.38
2019-04-01T09:54:11.865Z,100904.31
2019-04-01T09:56:40.307Z,100895.13
2019-04-01T09:59:08.805Z,100890.62
2019-04-01T10:01:37.221Z,100887.49
2019-04-01T10:04:05.693Z,100887.98
2019-04-01T10:06:34.130Z,100881.62
2019-04-01T10:09:02.559Z,100881.73
2019-04-01T10:11:30.990Z,100879.44
2019-04-01T10:13:59.396Z,100882.66
2019-04-01T10:16:28.017Z,100878.88
2019-04-01T10:18:56.448Z,100886.30
2019-04-01T10:21:24.874Z,100877.99
2019-04-01T10:23:53.320Z,100874.22
2019-04-01T10:26:21.793Z,100868.98
2019-04-01T10:28:50.247Z,100869.93
2019-04-01T10:31:18.676Z,100865.42
2019-04-01T10:33:47.112Z,100859.45
2019-04-01T10:36:15.586Z,100851.57
2019-04-01T10:38:46.699Z,100855.29
2019-04-01T10:41:14.259Z,100850.01
2019-04-01T10:43:42.709Z,100852.22
2019-04-01T10:46:12.344Z,100849.82
2019-04-01T10:48:40.989Z,100850.75
2019-04-01T10:51:09.406Z,100837.97
2019-04-01T10:53:37.832Z,100843.53
2019-04-01T10:56:06.337Z,100841.45
2019-04-01T10:58:34.902Z,100831.33
2019-04-01T11:01:03.350Z,100823.03
2019-04-01T11:03:31.934Z,100823.13
2019-04-01T11:06:00.464Z,100816.83
2019-04-01T11:08:29.000Z,100816.13
2019-04-01T11:10:57.345Z,100810.34
2019-04-01T11:13:25.825Z,100805.50
2019-04-01T11:15:54.276Z,100800.31
2019-04-01T11:18:22.688Z,100799.08
2019-04-01T11:20:51.210Z,100799.20
2019-04-01T11:23:19.626Z,100796.25
2019-04-01T11:25:48.047Z,100792.11
2019-04-01T11:28:16.561Z,100795.65
2019-04-01T11:30:45.024Z,100790.41
2019-04-01T11:33:13.458Z,100786.81
2019-04-01T11:35:42.028Z,100775.97
2019-04-01T11:38:10.553Z,100776.55
2019-04-01T11:40:39.206Z,100774.83
2019-04-01T11:43:07.796Z,100767.16
2019-04-01T11:45:36.211Z,100762.36
2019-04-01T11:48:04.796Z,100755.55
2019-04-01T11:50:33.333Z,100757.10
2019-04-01T11:53:01.712Z,100749.56
2019-04-01T11:55:30.125Z,100748.38
2019-04-01T11:57:58.554Z,100737.75
2019-04-01T12:00:27.656Z,100734.18
2019-04-01T12:02:56.064Z,100728.66
2019-04-01T12:05:24.484Z,100723.33
2019-04-01T12:07:53.005Z,100719.50
2019-04-01T12:10:21.436Z,100714.33
2019-04-01T12:12:49.870Z,100705.93
2019-04-01T12:15:18.386Z,100700.82
2019-04-01T12:17:46.798Z,100698.31
2019-04-01T12:20:15.298Z,100694.33
2019-04-01T12:22:46.026Z,100688.61
2019-04-01T12:25:13.944Z,100678.50
2019-04-01T12:27:42.372Z,100671.90
2019-04-01T12:30:11.555Z,100675.58
2019-04-01T12:32:40.002Z,100659.88
2019-04-01T12:35:08.684Z,100662.25
2019-04-01T12:37:37.105Z,100658.63
2019-04-01T12:40:07.184Z,100650.59
2019-04-01T12:42:35.612Z,100651.66
2019-04-01T12:45:06.530Z,100639.11
2019-04-01T12:47:35.420Z,100633.74
2019-04-01T12:50:04.981Z,100635.33
2019-04-01T12:52:33.432Z,100625.81
2019-04-01T12:55:01.974Z,100626.82
2019-04-01T12:57:30.314Z,100622.83
2019-04-01T12:59:58.787Z,100619.31
2019-04-01T13:02:27.223Z,100616.91
2019-04-01T13:04:55.751Z,100611.83
2019-04-01T13:07:24.197Z,100612.03
2019-04-01T13:09:52.627Z,100597.33
2019-04-01T13:12:21.056Z,100593.40
2019-04-01T13:14:49.489Z,100591.28
2019-04-01T13:17:17.894Z,100586.52
2019-04-01T13:19:46.341Z,100572.02
2019-04-01T13:22:14.828Z,100572.17
2019-04-01T13:24:43.263Z,100561.15
2019-04-01T13:27:11.681Z,100568.44
2019-04-01T13:29:40.117Z,100565.59
2019-04-01T13:32:08.556Z,100561.00
2019-04-01T13:34:36.979Z,100555.78
2019-04-01T13:37:05.900Z,100554.50
2019-04-01T13:39:34.303Z,100550.34
2019-04-01T13:42:02.741Z,100541.45
2019-04-01T13:44:37.305Z,100541.19
2019-04-01T13:47:01.344Z,100539.28
2019-04-01T13:49:29.763Z,100529.22
2019-04-01T13:51:59.057Z,100535.48
2019-04-01T13:54:28.100Z,100525.78
2019-04-01T13:56:56.521Z,100523.91
2019-04-01T13:59:24.947Z,100516.69
2019-04-01T14:01:54.363Z,100519.24
2019-04-01T14:04:23.579Z,100520.99
2019-04-01T14:06:52.239Z,100513.13
2019-04-01T14:09:21.198Z,100512.87
2019-04-01T14:11:49.669Z,100501.88
2019-04-01T14:14:18.123Z,100503.25
2019-04-01T14:16:46.532Z,100497.48
2019-04-01T14:19:14.984Z,100498.91
2019-04-01T14:21:43.385Z,100489.86
2019-04-01T14:24:11.809Z,100489.55
2019-04-01T14:26:41.027Z,100489.00
2019-04-01T14:29:09.661Z,100480.26
2019-04-01T14:31:38.063Z,100481.52
2019-04-01T14:34:07.031Z,100476.91
2019-04-01T14:36:37.960Z,100469.86
2019-04-01T14:39:07.452Z,100476.72
2019-04-01T14:41:35.947Z,100466.66
2019-04-01T14:44:04.476Z,100461.69
2019-04-01T14:46:32.920Z,100460.81
2019-04-01T14:49:02.790Z,100459.98
2019-04-01T14:51:31.628Z,100457.43
2019-04-01T14:54:00.037Z,100458.13
2019-04-01T14:56:28.684Z,100454.02
2019-04-01T14:58:57.207Z,100453.52
2019-04-01T15:01:25.645Z,100455.95
2019-04-01T15:03:54.083Z,100450.52
2019-04-01T15:06:22.491Z,100448.62
2019-04-01T15:08:50.921Z,100452.28
2019-04-01T15:11:19.329Z,100445.25
2019-04-01T15:13:47.783Z,100444.62
2019-04-01T15:16:16.335Z,100451.29
2019-04-01T15:18:45.510Z,100443.75
2019-04-01T15:21:14.325Z,100446.50
2019-04-01T15:23:42.727Z,100439.73
2019-04-01T15:26:11.171Z,100433.76
2019-04-01T15:28:39.583Z,100441.47
2019-04-01T15:31:08.019Z,100431.88
2019-04-01T15:33:36.457Z,100430.66
2019-04-01T15:36:04.883Z,100425.90
2019-04-01T15:38:33.313Z,100420.55
2019-04-01T15:41:01.743Z,100417.14
2019-04-01T15:43:30.197Z,100416.67
2019-04-01T15:45:58.615Z,100416.17
2019-04-01T15:48:27.065Z,100417.59
2019-04-01T15:50:55.529Z,100410.73
2019-04-01T15:53:23.947Z,100414.86
2019-04-01T15:55:52.397Z,100411.26
2019-04-01T15:58:20.817Z,100410.94
2019-04-01T16:00:49.325Z,100405.63
2019-04-01T16:03:18.024Z,100403.94
2019-04-01T16:05:46.533Z,100403.13
2019-04-01T16:08:14.948Z,100400.39
2019-04-01T16:10:43.430Z,100396.45
2019-04-01T16:13:11.851Z,100394.77
2019-04-01T16:15:40.455Z,100393.58
2019-04-01T16:18:08.885Z,100388.98
2019-04-01T16:20:37.310Z,100387.92
2019-04-01T16:23:05.750Z,100383.30
2019-04-01T16:25:37.415Z,100378.00
2019-04-01T16:28:04.786Z,100381.62
2019-04-01T16:30:33.203Z,100379.56
2019-04-01T16:33:01.634Z,100380.08
2019-04-01T16:35:30.088Z,100377.84
2019-04-01T16:37:59.478Z,100381.95
2019-04-01T16:40:28.080Z,100374.97
2019-04-01T16:42:56.495Z,100381.13
2019-04-01T16:45:25.006Z,100379.81
2019-04-01T16:47:53.417Z,100375.70
2019-04-01T16:50:21.915Z,100374.33
2019-04-01T16:52:50.323Z,100375.89
2019-04-01T16:55:18.893Z,100373.32
2019-04-01T16:57:47.417Z,100367.67
2019-04-01T17:00:16.891Z,100371.27
2019-04-01T17:02:45.411Z,100369.03
2019-04-01T17:05:18.030Z,100375.38
2019-04-01T17:07:46.496Z,100372.31
2019-04-01T17:10:22.278Z,100366.66
2019-04-01T17:12:50.761Z,100374.05
2019-04-01T17:15:21.185Z,100374.05
2019-04-01T17:17:49.488Z,100375.59
2019-04-01T17:20:18.003Z,100373.55
2019-04-01T17:22:46.468Z,100371.31
2019-04-01T17:25:15.060Z,100369.95
2019-04-01T17:27:43.557Z,100369.63
2019-04-01T17:30:13.048Z,100374.23
2019-04-01T17:32:41.458Z,100377.16
2019-04-01T17:35:10.427Z,100373.05
2019-04-01T17:37:38.872Z,100370.67
2019-04-01T17:40:09.526Z,100373.41
2019-04-01T17:42:39.431Z,100366.75
2019-04-01T17:45:11.380Z,100369.66
2019-04-01T17:47:40.105Z,100374.13
2019-04-01T17:50:08.875Z,100367.28
2019-04-01T17:52:37.304Z,100370.71
2019-04-01T17:55:05.829Z,100368.16
2019-04-01T17:57:34.235Z,100372.44
2019-04-01T18:00:02.842Z,100374.17
2019-04-01T18:02:31.248Z,100368.01
2019-04-01T18:04:59.696Z,100369.56
2019-04-01T18:07:28.175Z,100366.82
2019-04-01T18:09:56.601Z,100362.57
2019-04-01T18:12:25.137Z,100364.12
2019-04-01T18:14:53.571Z,100369.41
2019-04-01T18:17:22.025Z,100365.16
2019-04-01T18:19:50.438Z,100373.55
2019-04-01T18:22:18.874Z,100374.24
2019-04-01T18:24:47.303Z,100372.19
2019-04-01T18:27:15.712Z,100373.23
2019-04-01T18:29:44.150Z,100375.28
2019-04-01T18:32:12.629Z,100370.52
2019-04-01T18:34:41.055Z,100372.91
2019-04-01T18:37:09.485Z,100376.86
2019-04-01T18:39:48.065Z,100378.05
2019-04-01T18:42:08.143Z,100379.59
2019-04-01T18:44:36.699Z,100381.68
2019-04-01T18:47:05.283Z,100383.19
2019-04-01T18:49:33.680Z,100382.83
2019-04-01T18:52:02.129Z,100386.61
2019-04-01T18:54:30.579Z,100390.56
2019-04-01T18:56:59.007Z,100391.25
2019-04-01T18:59:27.416Z,100385.45
2019-04-01T19:01:55.851Z,100389.37
2019-04-01T19:04:24.299Z,100394.02
2019-04-01T19:06:52.733Z,100395.55
2019-04-01T19:09:21.157Z,100394.88
2019-04-01T19:12:03.023Z,100392.81
2019-04-01T19:14:19.747Z,100389.57
2019-04-01T19:16:48.173Z,100390.76
2019-04-01T19:19:16.583Z,100389.06
2019-04-01T19:21:45.022Z,100394.53
2019-04-01T19:24:13.426Z,100390.61
2019-04-01T19:26:41.858Z,100391.28
2019-04-01T19:29:10.303Z,100393.52
2019-04-01T19:31:38.710Z,100388.22
2019-04-01T19:34:07.640Z,100388.40
2019-04-01T19:36:36.272Z,100391.64
2019-04-01T19:39:06.845Z,100385.34
2019-04-01T19:41:35.331Z,100393.18
2019-04-01T19:44:03.939Z,100395.59
2019-04-01T19:46:32.385Z,100399.36
2019-04-01T19:49:04.760Z,100388.56
2019-04-01T19:51:31.006Z,100395.94
2019-04-01T19:53:59.473Z,100392.84
2019-04-01T19:56:27.900Z,100387.05
2019-04-01T19:58:56.336Z,100390.82
2019-04-01T20:01:24.980Z,100390.45
2019-04-01T20:03:54.210Z,100385.52
2019-04-01T20:06:22.914Z,100387.40
2019-04-01T20:08:51.348Z,100385.70
2019-04-01T20:11:19.787Z,100382.97
2019-04-01T20:13:48.206Z,100378.68
2019-04-01T20:16:16.667Z,100387.75
2019-04-01T20:18:45.110Z,100372.70
2019-04-01T20:21:13.586Z,100374.75
2019-04-01T20:23:41.980Z,100368.95
2019-04-01T20:26:10.422Z,100375.29
2019-04-01T20:28:38.857Z,100367.26
2019-04-01T20:31:07.294Z,100366.90
2019-04-01T20:33:35.710Z,100371.00
2019-04-01T20:36:04.533Z,100372.04
2019-04-01T20:38:33.188Z,100366.57
2019-04-01T20:41:01.606Z,100363.51
2019-04-01T20:43:30.034Z,100361.27
2019-04-01T20:45:58.469Z,100363.69
2019-04-01T20:48:26.876Z,100357.85
2019-04-01T20:50:57.148Z,100351.19
2019-04-01T20:53:25.466Z,100355.13
2019-04-01T20:55:53.895Z,100352.89
2019-04-01T20:58:22.320Z,100352.23
2019-04-01T21:00:50.790Z,100350.86
2019-04-01T21:03:19.195Z,100354.60
2019-04-01T21:05:47.634Z,100350.50
2019-04-01T21:08:16.953Z,100350.17
2019-04-01T21:10:45.409Z,100347.11
2019-04-01T21:13:13.814Z,100342.33
2019-04-01T21:15:42.250Z,100337.36
2019-04-01T21:18:10.685Z,100339.59
2019-04-01T21:20:39.120Z,100332.42
2019-04-01T21:23:07.692Z,100333.43
2019-04-01T21:25:36.163Z,100341.63
2019-04-01T21:28:04.840Z,100335.33
2019-04-01T21:30:33.253Z,100331.41
2019-04-01T21:33:01.687Z,100331.91
2019-04-01T21:35:30.128Z,100326.95
2019-04-01T21:37:58.525Z,100333.78
2019-04-01T21:40:27.982Z,100325.58
2019-04-01T21:42:56.766Z,100328.31
2019-04-01T21:45:25.217Z,100324.92
2019-04-01T21:47:53.626Z,100322.70
2019-04-01T21:50:22.074Z,100321.83
2019-04-01T21:52:50.498Z,100315.53
2019-04-01T21:55:19.187Z,100321.50
2019-04-01T21:57:47.635Z,100319.27
2019-04-01T22:00:20.892Z,100311.61
2019-04-01T22:02:49.305Z,100310.38
2019-04-01T22:05:17.715Z,100312.61
2019-04-01T22:07:46.153Z,100306.45
2019-04-01T22:10:14.757Z,100299.30
2019-04-01T22:12:43.184Z,100305.63
2019-04-01T22:15:11.622Z,100295.38
2019-04-01T22:17:40.050Z,100294.50
2019-04-01T22:20:10.219Z,100291.77
2019-04-01T22:22:38.829Z,100286.98
2019-04-01T22:25:07.588Z,100291.08
2019-04-01T22:27:36.049Z,100293.14
2019-04-01T22:35:00.647Z,100284.93
2019-04-01T22:37:29.059Z,100286.80
2019-04-01T22:39:57.498Z,100284.59
2019-04-01T22:42:27.047Z,100289.20
2019-04-01T22:44:55.752Z,100285.97
2019-04-01T22:47:24.576Z,100280.14
2019-04-01T22:49:53.081Z,100278.95
2019-04-01T22:52:21.485Z,100277.76
2019-04-01T22:54:49.913Z,100284.09
2019-04-01T22:57:18.349Z,100277.76
2019-04-01T22:59:46.777Z,100285.95
2019-04-01T23:02:15.223Z,100285.13
2019-04-01T23:04:43.646Z,100288.36
2019-04-01T23:07:12.096Z,100284.26
2019-04-01T23:09:40.502Z,100278.11
2019-04-01T23:12:08.948Z,100283.39
2019-04-01T23:14:37.379Z,100274.01
2019-04-01T23:17:05.786Z,100277.28
2019-04-01T23:19:34.493Z,100275.38
2019-04-01T23:22:04.273Z,100274.69
2019-04-01T23:24:32.733Z,100267.52
2019-04-01T23:27:01.143Z,100268.89
2019-04-01T23:29:29.844Z,100265.83
2019-04-01T23:31:58.250Z,100262.23
2019-04-01T23:34:26.737Z,100257.27
2019-04-01T23:36:55.151Z,100261.05
2019-04-01T23:39:23.651Z,100260.72
2019-04-01T23:41:52.089Z,100265.64
2019-04-01T23:44:20.501Z,100261.55
2019-04-01T23:46:48.955Z,100257.12
2019-04-01T23:49:17.439Z,100256.79
2019-04-01T23:51:45.870Z,100253.19
2019-04-01T23:54:14.275Z,100257.30
2019-04-01T23:56:42.711Z,100251.50
2019-04-01T23:59:11.149Z,100254.73
